sensor_id;sensor_type;location;lat;lon;timestamp;P1;durP1;ratioP1;P2;durP2;ratioP2
4732;SDS011;2380;53.668;10.008;2023-08-30T00:01:55;8.65;;;5.30;;
4732;SDS011;2380;53.668;10.008;2023-08-30T00:04:28;6.60;;;4.50;;
4732;SDS011;2380;53.668;10.008;2023-08-30T00:06:58;7.60;;;5.38;;
4732;SDS011;2380;53.668;10.008;2023-08-30T00:09:27;9.77;;;6.40;;
4732;SDS011;2380;53.668;10.008;2023-08-30T00:11:57;11.32;;;6.90;;
4732;SDS011;2380;53.668;10.008;2023-08-30T00:14:27;11.15;;;7.25;;
4732;SDS011;2380;53.668;10.008;2023-08-30T00:16:56;10.07;;;7.05;;
4732;SDS011;2380;53.668;10.008;2023-08-30T00:19:29;12.07;;;7.40;;
4732;SDS011;2380;53.668;10.008;2023-08-30T00:21:58;11.15;;;7.20;;
4732;SDS011;2380;53.668;10.008;2023-08-30T00:24:28;13.25;;;7.88;;
4732;SDS011;2380;53.668;10.008;2023-08-30T00:26:57;9.73;;;6.82;;
4732;SDS011;2380;53.668;10.008;2023-08-30T00:29:27;9.65;;;6.70;;
4732;SDS011;2380;53.668;10.008;2023-08-30T00:31:57;11.60;;;7.50;;
4732;SDS011;2380;53.668;10.008;2023-08-30T00:34:29;18.00;;;12.70;;
4732;SDS011;2380;53.668;10.008;2023-08-30T00:36:58;12.85;;;8.55;;
4732;SDS011;2380;53.668;10.008;2023-08-30T00:39:28;12.63;;;8.60;;
4732;SDS011;2380;53.668;10.008;2023-08-30T00:41:58;11.95;;;8.20;;
4732;SDS011;2380;53.668;10.008;2023-08-30T00:44:31;13.63;;;9.93;;
4732;SDS011;2380;53.668;10.008;2023-08-30T00:47:01;13.32;;;9.38;;
4732;SDS011;2380;53.668;10.008;2023-08-30T00:49:34;11.45;;;8.00;;
4732;SDS011;2380;53.668;10.008;2023-08-30T00:52:05;9.75;;;6.53;;
4732;SDS011;2380;53.668;10.008;2023-08-30T00:54:37;11.10;;;6.78;;
4732;SDS011;2380;53.668;10.008;2023-08-30T00:57:08;8.70;;;6.70;;
4732;SDS011;2380;53.668;10.008;2023-08-30T00:59:38;7.93;;;4.82;;
4732;SDS011;2380;53.668;10.008;2023-08-30T01:02:08;9.95;;;6.65;;
4732;SDS011;2380;53.668;10.008;2023-08-30T01:04:41;9.00;;;6.40;;
4732;SDS011;2380;53.668;10.008;2023-08-30T01:07:11;7.70;;;5.50;;
4732;SDS011;2380;53.668;10.008;2023-08-30T01:09:40;8.63;;;6.10;;
4732;SDS011;2380;53.668;10.008;2023-08-30T01:12:10;10.98;;;6.15;;
4732;SDS011;2380;53.668;10.008;2023-08-30T01:14:43;14.18;;;8.07;;
4732;SDS011;2380;53.668;10.008;2023-08-30T01:17:15;13.25;;;8.40;;
4732;SDS011;2380;53.668;10.008;2023-08-30T01:19:49;12.70;;;8.50;;
4732;SDS011;2380;53.668;10.008;2023-08-30T01:22:21;17.67;;;11.80;;
4732;SDS011;2380;53.668;10.008;2023-08-30T01:25:00;12.88;;;8.70;;
4732;SDS011;2380;53.668;10.008;2023-08-30T01:27:41;9.88;;;6.45;;
4732;SDS011;2380;53.668;10.008;2023-08-30T01:30:11;9.57;;;5.88;;
4732;SDS011;2380;53.668;10.008;2023-08-30T01:32:41;12.25;;;7.22;;
4732;SDS011;2380;53.668;10.008;2023-08-30T01:35:12;11.68;;;7.32;;
4732;SDS011;2380;53.668;10.008;2023-08-30T01:37:44;10.45;;;6.80;;
4732;SDS011;2380;53.668;10.008;2023-08-30T01:40:14;11.13;;;7.10;;
4732;SDS011;2380;53.668;10.008;2023-08-30T01:42:47;10.05;;;7.10;;
4732;SDS011;2380;53.668;10.008;2023-08-30T01:45:17;10.80;;;7.00;;
4732;SDS011;2380;53.668;10.008;2023-08-30T01:47:48;9.03;;;6.40;;
4732;SDS011;2380;53.668;10.008;2023-08-30T01:50:19;10.65;;;6.20;;
4732;SDS011;2380;53.668;10.008;2023-08-30T01:52:49;10.03;;;6.77;;
4732;SDS011;2380;53.668;10.008;2023-08-30T01:55:20;9.35;;;6.20;;
4732;SDS011;2380;53.668;10.008;2023-08-30T01:57:53;9.47;;;5.40;;
4732;SDS011;2380;53.668;10.008;2023-08-30T02:00:23;8.35;;;5.40;;
4732;SDS011;2380;53.668;10.008;2023-08-30T02:02:52;9.32;;;5.90;;
4732;SDS011;2380;53.668;10.008;2023-08-30T02:05:22;8.20;;;5.40;;
4732;SDS011;2380;53.668;10.008;2023-08-30T02:07:54;8.05;;;5.38;;
4732;SDS011;2380;53.668;10.008;2023-08-30T02:10:27;8.23;;;5.68;;
4732;SDS011;2380;53.668;10.008;2023-08-30T02:13:03;8.30;;;5.70;;
4732;SDS011;2380;53.668;10.008;2023-08-30T02:15:33;8.52;;;5.47;;
4732;SDS011;2380;53.668;10.008;2023-08-30T02:18:05;7.60;;;5.20;;
4732;SDS011;2380;53.668;10.008;2023-08-30T02:20:35;7.20;;;5.20;;
4732;SDS011;2380;53.668;10.008;2023-08-30T02:23:05;8.05;;;5.75;;
4732;SDS011;2380;53.668;10.008;2023-08-30T02:25:40;12.95;;;6.75;;
4732;SDS011;2380;53.668;10.008;2023-08-30T02:28:13;9.60;;;5.30;;
4732;SDS011;2380;53.668;10.008;2023-08-30T02:30:42;7.20;;;5.07;;
4732;SDS011;2380;53.668;10.008;2023-08-30T02:33:12;9.87;;;5.70;;
4732;SDS011;2380;53.668;10.008;2023-08-30T02:35:41;8.10;;;5.40;;
4732;SDS011;2380;53.668;10.008;2023-08-30T02:38:11;9.38;;;5.97;;
4732;SDS011;2380;53.668;10.008;2023-08-30T02:40:41;10.27;;;6.15;;
4732;SDS011;2380;53.668;10.008;2023-08-30T02:43:13;8.10;;;5.75;;
4732;SDS011;2380;53.668;10.008;2023-08-30T02:45:43;10.38;;;6.80;;
4732;SDS011;2380;53.668;10.008;2023-08-30T02:48:13;9.20;;;5.60;;
4732;SDS011;2380;53.668;10.008;2023-08-30T02:50:43;9.05;;;6.45;;
4732;SDS011;2380;53.668;10.008;2023-08-30T02:53:12;13.93;;;8.10;;
4732;SDS011;2380;53.668;10.008;2023-08-30T02:55:42;12.25;;;8.75;;
4732;SDS011;2380;53.668;10.008;2023-08-30T02:58:14;14.98;;;10.00;;
4732;SDS011;2380;53.668;10.008;2023-08-30T03:00:44;16.38;;;10.48;;
4732;SDS011;2380;53.668;10.008;2023-08-30T03:03:13;13.35;;;9.20;;
4732;SDS011;2380;53.668;10.008;2023-08-30T03:05:43;12.20;;;8.40;;
4732;SDS011;2380;53.668;10.008;2023-08-30T03:08:16;10.95;;;7.45;;
4732;SDS011;2380;53.668;10.008;2023-08-30T03:10:45;11.07;;;7.40;;
4732;SDS011;2380;53.668;10.008;2023-08-30T03:13:17;11.27;;;7.70;;
4732;SDS011;2380;53.668;10.008;2023-08-30T03:15:47;10.63;;;7.10;;
4732;SDS011;2380;53.668;10.008;2023-08-30T03:18:17;11.65;;;8.10;;
4732;SDS011;2380;53.668;10.008;2023-08-30T03:20:46;11.18;;;7.80;;
4732;SDS011;2380;53.668;10.008;2023-08-30T03:23:16;11.68;;;7.88;;
4732;SDS011;2380;53.668;10.008;2023-08-30T03:25:45;11.20;;;7.78;;
4732;SDS011;2380;53.668;10.008;2023-08-30T03:28:17;10.87;;;7.17;;
4732;SDS011;2380;53.668;10.008;2023-08-30T03:30:47;10.80;;;6.60;;
4732;SDS011;2380;53.668;10.008;2023-08-30T03:33:16;10.38;;;7.07;;
4732;SDS011;2380;53.668;10.008;2023-08-30T03:35:46;10.30;;;6.70;;
4732;SDS011;2380;53.668;10.008;2023-08-30T03:38:16;10.82;;;7.03;;
4732;SDS011;2380;53.668;10.008;2023-08-30T03:40:45;9.80;;;6.68;;
4732;SDS011;2380;53.668;10.008;2023-08-30T03:43:17;9.23;;;6.13;;
4732;SDS011;2380;53.668;10.008;2023-08-30T03:45:47;8.98;;;5.90;;
4732;SDS011;2380;53.668;10.008;2023-08-30T03:48:16;9.10;;;5.90;;
4732;SDS011;2380;53.668;10.008;2023-08-30T03:50:46;9.13;;;6.22;;
4732;SDS011;2380;53.668;10.008;2023-08-30T03:53:16;8.80;;;6.20;;
4732;SDS011;2380;53.668;10.008;2023-08-30T03:55:45;8.90;;;6.03;;
4732;SDS011;2380;53.668;10.008;2023-08-30T03:58:18;9.02;;;5.80;;
4732;SDS011;2380;53.668;10.008;2023-08-30T04:00:48;10.80;;;6.60;;
4732;SDS011;2380;53.668;10.008;2023-08-30T04:03:17;9.63;;;6.30;;
4732;SDS011;2380;53.668;10.008;2023-08-30T04:05:47;10.93;;;6.70;;
4732;SDS011;2380;53.668;10.008;2023-08-30T04:08:17;12.02;;;7.45;;
4732;SDS011;2380;53.668;10.008;2023-08-30T04:10:47;11.70;;;7.90;;
4732;SDS011;2380;53.668;10.008;2023-08-30T04:13:19;12.30;;;8.00;;
4732;SDS011;2380;53.668;10.008;2023-08-30T04:15:48;13.40;;;8.30;;
4732;SDS011;2380;53.668;10.008;2023-08-30T04:18:18;13.52;;;8.10;;
4732;SDS011;2380;53.668;10.008;2023-08-30T04:20:47;13.75;;;8.27;;
4732;SDS011;2380;53.668;10.008;2023-08-30T04:23:17;12.00;;;7.40;;
4732;SDS011;2380;53.668;10.008;2023-08-30T04:25:47;15.38;;;7.70;;
4732;SDS011;2380;53.668;10.008;2023-08-30T04:28:19;14.32;;;8.32;;
4732;SDS011;2380;53.668;10.008;2023-08-30T04:30:48;13.85;;;8.20;;
4732;SDS011;2380;53.668;10.008;2023-08-30T04:33:18;12.15;;;8.05;;
4732;SDS011;2380;53.668;10.008;2023-08-30T04:35:49;15.00;;;8.48;;
4732;SDS011;2380;53.668;10.008;2023-08-30T04:38:19;13.35;;;9.40;;
4732;SDS011;2380;53.668;10.008;2023-08-30T04:40:49;12.40;;;9.20;;
4732;SDS011;2380;53.668;10.008;2023-08-30T04:43:21;14.20;;;9.03;;
4732;SDS011;2380;53.668;10.008;2023-08-30T04:45:51;12.93;;;8.13;;
4732;SDS011;2380;53.668;10.008;2023-08-30T04:48:21;14.38;;;8.15;;
4732;SDS011;2380;53.668;10.008;2023-08-30T04:50:57;12.98;;;8.30;;
4732;SDS011;2380;53.668;10.008;2023-08-30T04:53:27;10.95;;;7.60;;
4732;SDS011;2380;53.668;10.008;2023-08-30T04:55:57;11.63;;;7.88;;
4732;SDS011;2380;53.668;10.008;2023-08-30T04:58:29;10.65;;;7.53;;
4732;SDS011;2380;53.668;10.008;2023-08-30T05:00:59;11.32;;;7.43;;
4732;SDS011;2380;53.668;10.008;2023-08-30T05:03:29;10.00;;;7.20;;
4732;SDS011;2380;53.668;10.008;2023-08-30T05:05:58;10.43;;;7.13;;
4732;SDS011;2380;53.668;10.008;2023-08-30T05:08:28;11.32;;;7.15;;
4732;SDS011;2380;53.668;10.008;2023-08-30T05:10:58;11.50;;;7.80;;
4732;SDS011;2380;53.668;10.008;2023-08-30T05:13:33;12.85;;;7.50;;
4732;SDS011;2380;53.668;10.008;2023-08-30T05:16:02;12.27;;;7.70;;
4732;SDS011;2380;53.668;10.008;2023-08-30T05:18:32;12.93;;;7.75;;
4732;SDS011;2380;53.668;10.008;2023-08-30T05:21:02;12.40;;;7.80;;
4732;SDS011;2380;53.668;10.008;2023-08-30T05:23:33;11.93;;;8.23;;
4732;SDS011;2380;53.668;10.008;2023-08-30T05:26:05;12.10;;;7.70;;
4732;SDS011;2380;53.668;10.008;2023-08-30T05:28:38;11.40;;;8.15;;
4732;SDS011;2380;53.668;10.008;2023-08-30T05:31:07;12.40;;;8.20;;
4732;SDS011;2380;53.668;10.008;2023-08-30T05:33:37;12.70;;;7.45;;
4732;SDS011;2380;53.668;10.008;2023-08-30T05:36:06;13.32;;;7.85;;
4732;SDS011;2380;53.668;10.008;2023-08-30T05:38:36;13.40;;;8.37;;
4732;SDS011;2380;53.668;10.008;2023-08-30T05:41:05;12.05;;;8.50;;
4732;SDS011;2380;53.668;10.008;2023-08-30T05:43:38;13.90;;;7.90;;
4732;SDS011;2380;53.668;10.008;2023-08-30T05:46:07;13.23;;;8.52;;
4732;SDS011;2380;53.668;10.008;2023-08-30T05:48:41;16.17;;;8.65;;
4732;SDS011;2380;53.668;10.008;2023-08-30T05:51:11;15.27;;;8.88;;
4732;SDS011;2380;53.668;10.008;2023-08-30T05:53:40;12.02;;;8.20;;
4732;SDS011;2380;53.668;10.008;2023-08-30T05:56:10;11.40;;;7.60;;
4732;SDS011;2380;53.668;10.008;2023-08-30T05:58:42;13.07;;;8.05;;
4732;SDS011;2380;53.668;10.008;2023-08-30T06:01:11;11.00;;;8.07;;
4732;SDS011;2380;53.668;10.008;2023-08-30T06:03:43;12.57;;;8.37;;
4732;SDS011;2380;53.668;10.008;2023-08-30T06:06:13;12.07;;;8.50;;
4732;SDS011;2380;53.668;10.008;2023-08-30T06:08:44;11.20;;;8.30;;
4732;SDS011;2380;53.668;10.008;2023-08-30T06:11:13;13.27;;;8.60;;
4732;SDS011;2380;53.668;10.008;2023-08-30T06:13:45;13.55;;;8.35;;
4732;SDS011;2380;53.668;10.008;2023-08-30T06:16:15;12.40;;;8.93;;
4732;SDS011;2380;53.668;10.008;2023-08-30T06:18:45;12.50;;;7.87;;
4732;SDS011;2380;53.668;10.008;2023-08-30T06:21:14;11.32;;;8.60;;
4732;SDS011;2380;53.668;10.008;2023-08-30T06:23:44;14.52;;;8.80;;
4732;SDS011;2380;53.668;10.008;2023-08-30T06:26:13;13.75;;;8.77;;
4732;SDS011;2380;53.668;10.008;2023-08-30T06:28:46;12.57;;;8.52;;
4732;SDS011;2380;53.668;10.008;2023-08-30T06:31:29;14.98;;;9.35;;
4732;SDS011;2380;53.668;10.008;2023-08-30T06:33:59;13.43;;;8.95;;
4732;SDS011;2380;53.668;10.008;2023-08-30T06:36:29;13.70;;;8.48;;
4732;SDS011;2380;53.668;10.008;2023-08-30T06:38:58;13.95;;;8.43;;
4732;SDS011;2380;53.668;10.008;2023-08-30T06:41:28;13.20;;;8.80;;
4732;SDS011;2380;53.668;10.008;2023-08-30T06:44:00;11.70;;;8.10;;
4732;SDS011;2380;53.668;10.008;2023-08-30T06:46:30;13.85;;;9.10;;
4732;SDS011;2380;53.668;10.008;2023-08-30T06:49:00;22.42;;;13.60;;
4732;SDS011;2380;53.668;10.008;2023-08-30T06:51:29;16.85;;;10.98;;
4732;SDS011;2380;53.668;10.008;2023-08-30T06:53:59;12.88;;;9.00;;
4732;SDS011;2380;53.668;10.008;2023-08-30T06:56:28;14.82;;;9.02;;
4732;SDS011;2380;53.668;10.008;2023-08-30T06:59:01;13.57;;;9.45;;
4732;SDS011;2380;53.668;10.008;2023-08-30T07:01:30;17.15;;;10.40;;
4732;SDS011;2380;53.668;10.008;2023-08-30T07:04:02;16.50;;;10.75;;
4732;SDS011;2380;53.668;10.008;2023-08-30T07:06:32;14.23;;;8.80;;
4732;SDS011;2380;53.668;10.008;2023-08-30T07:09:01;12.90;;;8.30;;
4732;SDS011;2380;53.668;10.008;2023-08-30T07:11:33;14.68;;;9.52;;
4732;SDS011;2380;53.668;10.008;2023-08-30T07:14:05;12.68;;;8.38;;
4732;SDS011;2380;53.668;10.008;2023-08-30T07:16:35;14.45;;;8.45;;
4732;SDS011;2380;53.668;10.008;2023-08-30T07:19:05;13.15;;;8.50;;
4732;SDS011;2380;53.668;10.008;2023-08-30T07:21:36;15.80;;;9.40;;
4732;SDS011;2380;53.668;10.008;2023-08-30T07:24:06;12.48;;;8.52;;
4732;SDS011;2380;53.668;10.008;2023-08-30T07:26:36;14.02;;;8.90;;
4732;SDS011;2380;53.668;10.008;2023-08-30T07:29:09;19.40;;;12.23;;
4732;SDS011;2380;53.668;10.008;2023-08-30T07:31:38;15.30;;;9.75;;
4732;SDS011;2380;53.668;10.008;2023-08-30T07:34:08;12.85;;;8.70;;
4732;SDS011;2380;53.668;10.008;2023-08-30T07:36:38;13.30;;;8.88;;
4732;SDS011;2380;53.668;10.008;2023-08-30T07:39:13;12.80;;;8.30;;
4732;SDS011;2380;53.668;10.008;2023-08-30T07:41:43;15.40;;;9.68;;
4732;SDS011;2380;53.668;10.008;2023-08-30T07:44:15;12.00;;;8.30;;
4732;SDS011;2380;53.668;10.008;2023-08-30T07:46:49;13.00;;;8.60;;
4732;SDS011;2380;53.668;10.008;2023-08-30T07:49:19;10.57;;;7.55;;
4732;SDS011;2380;53.668;10.008;2023-08-30T07:51:49;12.38;;;7.93;;
4732;SDS011;2380;53.668;10.008;2023-08-30T07:54:18;11.27;;;8.20;;
4732;SDS011;2380;53.668;10.008;2023-08-30T07:56:48;15.90;;;9.90;;
4732;SDS011;2380;53.668;10.008;2023-08-30T07:59:20;19.52;;;12.43;;
4732;SDS011;2380;53.668;10.008;2023-08-30T08:01:50;14.70;;;9.65;;
4732;SDS011;2380;53.668;10.008;2023-08-30T08:04:20;14.95;;;10.20;;
4732;SDS011;2380;53.668;10.008;2023-08-30T08:06:49;14.02;;;9.35;;
4732;SDS011;2380;53.668;10.008;2023-08-30T08:09:22;16.30;;;10.55;;
4732;SDS011;2380;53.668;10.008;2023-08-30T08:11:52;18.65;;;12.05;;
4732;SDS011;2380;53.668;10.008;2023-08-30T08:14:25;15.15;;;9.45;;
4732;SDS011;2380;53.668;10.008;2023-08-30T08:16:55;14.80;;;9.50;;
4732;SDS011;2380;53.668;10.008;2023-08-30T08:19:25;16.35;;;10.52;;
4732;SDS011;2380;53.668;10.008;2023-08-30T08:21:55;16.45;;;10.40;;
4732;SDS011;2380;53.668;10.008;2023-08-30T08:24:25;18.38;;;11.70;;
4732;SDS011;2380;53.668;10.008;2023-08-30T08:26:54;13.77;;;9.27;;
4732;SDS011;2380;53.668;10.008;2023-08-30T08:29:27;16.35;;;10.52;;
4732;SDS011;2380;53.668;10.008;2023-08-30T08:31:57;14.77;;;10.10;;
4732;SDS011;2380;53.668;10.008;2023-08-30T08:34:26;13.80;;;9.10;;
4732;SDS011;2380;53.668;10.008;2023-08-30T08:36:56;15.85;;;8.73;;
4732;SDS011;2380;53.668;10.008;2023-08-30T08:39:25;15.03;;;9.10;;
4732;SDS011;2380;53.668;10.008;2023-08-30T08:41:55;12.70;;;8.00;;
4732;SDS011;2380;53.668;10.008;2023-08-30T08:44:29;15.23;;;8.13;;
4732;SDS011;2380;53.668;10.008;2023-08-30T08:47:01;13.27;;;7.60;;
4732;SDS011;2380;53.668;10.008;2023-08-30T08:49:31;14.50;;;7.90;;
4732;SDS011;2380;53.668;10.008;2023-08-30T08:52:00;12.65;;;7.45;;
4732;SDS011;2380;53.668;10.008;2023-08-30T08:54:51;13.30;;;8.40;;
4732;SDS011;2380;53.668;10.008;2023-08-30T08:57:21;14.90;;;8.43;;
4732;SDS011;2380;53.668;10.008;2023-08-30T08:59:54;15.52;;;8.10;;
4732;SDS011;2380;53.668;10.008;2023-08-30T09:02:24;12.60;;;7.80;;
4732;SDS011;2380;53.668;10.008;2023-08-30T09:04:55;14.70;;;8.32;;
4732;SDS011;2380;53.668;10.008;2023-08-30T09:07:27;14.63;;;8.88;;
4732;SDS011;2380;53.668;10.008;2023-08-30T09:09:57;15.55;;;8.88;;
4732;SDS011;2380;53.668;10.008;2023-08-30T09:12:27;12.25;;;7.32;;
4732;SDS011;2380;53.668;10.008;2023-08-30T09:14:59;12.55;;;6.70;;
4732;SDS011;2380;53.668;10.008;2023-08-30T09:17:36;12.85;;;8.00;;
4732;SDS011;2380;53.668;10.008;2023-08-30T09:20:07;19.37;;;10.43;;
4732;SDS011;2380;53.668;10.008;2023-08-30T09:22:38;16.50;;;9.57;;
4732;SDS011;2380;53.668;10.008;2023-08-30T09:25:08;12.10;;;6.20;;
4732;SDS011;2380;53.668;10.008;2023-08-30T09:27:38;12.93;;;7.80;;
4732;SDS011;2380;53.668;10.008;2023-08-30T09:30:11;15.57;;;10.03;;
4732;SDS011;2380;53.668;10.008;2023-08-30T09:32:42;12.63;;;7.45;;
4732;SDS011;2380;53.668;10.008;2023-08-30T09:35:11;16.63;;;9.90;;
4732;SDS011;2380;53.668;10.008;2023-08-30T09:37:41;13.82;;;7.68;;
4732;SDS011;2380;53.668;10.008;2023-08-30T09:40:18;11.80;;;6.70;;
4732;SDS011;2380;53.668;10.008;2023-08-30T09:42:48;11.18;;;6.75;;
4732;SDS011;2380;53.668;10.008;2023-08-30T09:45:40;11.43;;;7.00;;
4732;SDS011;2380;53.668;10.008;2023-08-30T09:48:10;14.27;;;7.00;;
4732;SDS011;2380;53.668;10.008;2023-08-30T09:50:41;10.95;;;6.93;;
4732;SDS011;2380;53.668;10.008;2023-08-30T09:53:11;8.68;;;5.00;;
4732;SDS011;2380;53.668;10.008;2023-08-30T09:55:41;7.63;;;4.55;;
4732;SDS011;2380;53.668;10.008;2023-08-30T09:58:12;10.60;;;5.00;;
4732;SDS011;2380;53.668;10.008;2023-08-30T10:00:48;10.03;;;5.60;;
4732;SDS011;2380;53.668;10.008;2023-08-30T10:03:17;7.57;;;4.57;;
4732;SDS011;2380;53.668;10.008;2023-08-30T10:05:57;7.07;;;4.22;;
4732;SDS011;2380;53.668;10.008;2023-08-30T10:08:29;10.13;;;4.80;;
4732;SDS011;2380;53.668;10.008;2023-08-30T10:10:59;8.55;;;4.80;;
4732;SDS011;2380;53.668;10.008;2023-08-30T10:13:29;9.13;;;4.60;;
4732;SDS011;2380;53.668;10.008;2023-08-30T10:16:02;7.70;;;4.57;;
4732;SDS011;2380;53.668;10.008;2023-08-30T10:18:34;7.22;;;4.45;;
4732;SDS011;2380;53.668;10.008;2023-08-30T10:21:17;12.20;;;5.00;;
4732;SDS011;2380;53.668;10.008;2023-08-30T10:23:48;8.13;;;4.80;;
4732;SDS011;2380;53.668;10.008;2023-08-30T10:26:22;8.38;;;5.20;;
4732;SDS011;2380;53.668;10.008;2023-08-30T10:28:53;9.32;;;5.00;;
4732;SDS011;2380;53.668;10.008;2023-08-30T10:31:26;9.50;;;4.97;;
4732;SDS011;2380;53.668;10.008;2023-08-30T10:33:56;10.18;;;5.05;;
4732;SDS011;2380;53.668;10.008;2023-08-30T10:36:26;9.73;;;5.45;;
4732;SDS011;2380;53.668;10.008;2023-08-30T10:38:56;8.98;;;4.55;;
4732;SDS011;2380;53.668;10.008;2023-08-30T10:41:26;9.27;;;4.93;;
4732;SDS011;2380;53.668;10.008;2023-08-30T10:43:56;8.82;;;4.50;;
4732;SDS011;2380;53.668;10.008;2023-08-30T10:46:33;10.05;;;4.30;;
4732;SDS011;2380;53.668;10.008;2023-08-30T10:49:11;8.45;;;4.43;;
4732;SDS011;2380;53.668;10.008;2023-08-30T10:51:41;8.20;;;4.85;;
4732;SDS011;2380;53.668;10.008;2023-08-30T10:54:11;8.18;;;4.80;;
4732;SDS011;2380;53.668;10.008;2023-08-30T10:56:45;7.68;;;4.50;;
4732;SDS011;2380;53.668;10.008;2023-08-30T10:59:16;7.57;;;4.78;;
4732;SDS011;2380;53.668;10.008;2023-08-30T11:01:50;9.27;;;5.10;;
4732;SDS011;2380;53.668;10.008;2023-08-30T11:04:22;8.80;;;4.70;;
4732;SDS011;2380;53.668;10.008;2023-08-30T11:06:52;11.57;;;5.00;;
4732;SDS011;2380;53.668;10.008;2023-08-30T11:09:23;8.93;;;5.10;;
4732;SDS011;2380;53.668;10.008;2023-08-30T11:11:53;8.80;;;4.60;;
4732;SDS011;2380;53.668;10.008;2023-08-30T11:14:23;9.43;;;4.80;;
4732;SDS011;2380;53.668;10.008;2023-08-30T11:16:55;8.23;;;4.43;;
4732;SDS011;2380;53.668;10.008;2023-08-30T11:19:28;7.95;;;4.10;;
4732;SDS011;2380;53.668;10.008;2023-08-30T11:21:58;7.75;;;4.35;;
4732;SDS011;2380;53.668;10.008;2023-08-30T11:24:29;10.18;;;5.10;;
4732;SDS011;2380;53.668;10.008;2023-08-30T11:26:59;10.57;;;4.90;;
4732;SDS011;2380;53.668;10.008;2023-08-30T11:29:28;7.97;;;4.80;;
4732;SDS011;2380;53.668;10.008;2023-08-30T11:32:00;11.15;;;5.47;;
4732;SDS011;2380;53.668;10.008;2023-08-30T11:34:30;11.82;;;5.43;;
4732;SDS011;2380;53.668;10.008;2023-08-30T11:37:00;9.87;;;4.73;;
4732;SDS011;2380;53.668;10.008;2023-08-30T11:39:30;9.23;;;5.10;;
4732;SDS011;2380;53.668;10.008;2023-08-30T11:41:59;7.20;;;4.30;;
4732;SDS011;2380;53.668;10.008;2023-08-30T11:44:44;8.85;;;4.40;;
4732;SDS011;2380;53.668;10.008;2023-08-30T11:47:20;10.20;;;4.38;;
4732;SDS011;2380;53.668;10.008;2023-08-30T11:49:49;8.73;;;4.20;;
4732;SDS011;2380;53.668;10.008;2023-08-30T11:52:21;9.90;;;5.13;;
4732;SDS011;2380;53.668;10.008;2023-08-30T11:54:51;7.75;;;4.68;;
4732;SDS011;2380;53.668;10.008;2023-08-30T11:57:21;8.40;;;4.22;;
4732;SDS011;2380;53.668;10.008;2023-08-30T11:59:52;11.25;;;4.63;;
4732;SDS011;2380;53.668;10.008;2023-08-30T12:02:24;7.10;;;3.88;;
4732;SDS011;2380;53.668;10.008;2023-08-30T12:04:55;11.50;;;4.60;;
4732;SDS011;2380;53.668;10.008;2023-08-30T12:07:26;8.02;;;5.00;;
4732;SDS011;2380;53.668;10.008;2023-08-30T12:10:03;9.40;;;5.20;;
4732;SDS011;2380;53.668;10.008;2023-08-30T12:12:34;9.13;;;4.73;;
4732;SDS011;2380;53.668;10.008;2023-08-30T12:15:08;11.10;;;5.03;;
4732;SDS011;2380;53.668;10.008;2023-08-30T12:17:40;9.40;;;4.40;;
4732;SDS011;2380;53.668;10.008;2023-08-30T12:20:16;9.48;;;4.85;;
4732;SDS011;2380;53.668;10.008;2023-08-30T12:22:47;9.48;;;5.05;;
4732;SDS011;2380;53.668;10.008;2023-08-30T12:25:18;8.30;;;4.90;;
4732;SDS011;2380;53.668;10.008;2023-08-30T12:27:50;9.30;;;5.30;;
4732;SDS011;2380;53.668;10.008;2023-08-30T12:30:19;10.38;;;5.63;;
4732;SDS011;2380;53.668;10.008;2023-08-30T12:32:59;8.90;;;4.80;;
4732;SDS011;2380;53.668;10.008;2023-08-30T12:35:30;10.02;;;4.90;;
4732;SDS011;2380;53.668;10.008;2023-08-30T12:37:59;9.40;;;4.20;;
4732;SDS011;2380;53.668;10.008;2023-08-30T12:40:30;10.00;;;5.22;;
4732;SDS011;2380;53.668;10.008;2023-08-30T12:42:59;8.70;;;4.63;;
4732;SDS011;2380;53.668;10.008;2023-08-30T12:45:29;9.52;;;4.70;;
4732;SDS011;2380;53.668;10.008;2023-08-30T12:48:01;8.07;;;4.90;;
4732;SDS011;2380;53.668;10.008;2023-08-30T12:50:31;9.10;;;5.18;;
4732;SDS011;2380;53.668;10.008;2023-08-30T12:53:01;9.68;;;4.80;;
4732;SDS011;2380;53.668;10.008;2023-08-30T12:55:31;10.43;;;5.70;;
4732;SDS011;2380;53.668;10.008;2023-08-30T12:58:01;8.70;;;4.27;;
4732;SDS011;2380;53.668;10.008;2023-08-30T13:00:31;8.47;;;4.43;;
4732;SDS011;2380;53.668;10.008;2023-08-30T13:03:04;12.18;;;5.53;;
4732;SDS011;2380;53.668;10.008;2023-08-30T13:05:34;9.48;;;4.82;;
4732;SDS011;2380;53.668;10.008;2023-08-30T13:08:05;8.38;;;4.20;;
4732;SDS011;2380;53.668;10.008;2023-08-30T13:10:34;10.50;;;4.88;;
4732;SDS011;2380;53.668;10.008;2023-08-30T13:13:04;8.10;;;4.80;;
4732;SDS011;2380;53.668;10.008;2023-08-30T13:15:34;9.82;;;4.88;;
4732;SDS011;2380;53.668;10.008;2023-08-30T13:18:06;9.97;;;5.20;;
4732;SDS011;2380;53.668;10.008;2023-08-30T13:20:37;9.00;;;4.50;;
4732;SDS011;2380;53.668;10.008;2023-08-30T13:23:08;8.95;;;4.70;;
4732;SDS011;2380;53.668;10.008;2023-08-30T13:25:38;11.10;;;4.90;;
4732;SDS011;2380;53.668;10.008;2023-08-30T13:28:08;9.40;;;4.93;;
4732;SDS011;2380;53.668;10.008;2023-08-30T13:30:43;9.18;;;5.70;;
4732;SDS011;2380;53.668;10.008;2023-08-30T13:33:16;12.50;;;6.28;;
4732;SDS011;2380;53.668;10.008;2023-08-30T13:35:48;9.52;;;4.90;;
4732;SDS011;2380;53.668;10.008;2023-08-30T13:38:18;11.45;;;5.20;;
4732;SDS011;2380;53.668;10.008;2023-08-30T13:40:49;10.55;;;5.20;;
4732;SDS011;2380;53.668;10.008;2023-08-30T13:43:18;8.73;;;5.00;;
4732;SDS011;2380;53.668;10.008;2023-08-30T13:45:56;10.45;;;6.00;;
4732;SDS011;2380;53.668;10.008;2023-08-30T13:48:28;8.23;;;4.45;;
4732;SDS011;2380;53.668;10.008;2023-08-30T13:50:58;9.05;;;4.90;;
4732;SDS011;2380;53.668;10.008;2023-08-30T13:53:28;13.90;;;5.43;;
4732;SDS011;2380;53.668;10.008;2023-08-30T13:55:57;10.77;;;5.27;;
4732;SDS011;2380;53.668;10.008;2023-08-30T13:58:27;6.85;;;4.25;;
4732;SDS011;2380;53.668;10.008;2023-08-30T14:00:56;7.07;;;3.70;;
4732;SDS011;2380;53.668;10.008;2023-08-30T14:03:30;8.55;;;4.30;;
4732;SDS011;2380;53.668;10.008;2023-08-30T14:05:59;8.40;;;4.40;;
4732;SDS011;2380;53.668;10.008;2023-08-30T14:08:29;8.10;;;3.70;;
4732;SDS011;2380;53.668;10.008;2023-08-30T14:10:59;7.97;;;4.43;;
4732;SDS011;2380;53.668;10.008;2023-08-30T14:13:30;8.82;;;4.18;;
4732;SDS011;2380;53.668;10.008;2023-08-30T14:16:00;8.93;;;4.72;;
4732;SDS011;2380;53.668;10.008;2023-08-30T14:18:33;7.00;;;3.60;;
4732;SDS011;2380;53.668;10.008;2023-08-30T14:21:02;8.50;;;4.20;;
4732;SDS011;2380;53.668;10.008;2023-08-30T14:23:32;8.05;;;4.20;;
4732;SDS011;2380;53.668;10.008;2023-08-30T14:26:02;8.52;;;4.43;;
4732;SDS011;2380;53.668;10.008;2023-08-30T14:28:35;8.60;;;3.90;;
4732;SDS011;2380;53.668;10.008;2023-08-30T14:31:06;10.38;;;5.40;;
4732;SDS011;2380;53.668;10.008;2023-08-30T14:33:41;10.98;;;5.28;;
4732;SDS011;2380;53.668;10.008;2023-08-30T14:36:12;9.38;;;4.63;;
4732;SDS011;2380;53.668;10.008;2023-08-30T14:38:42;10.90;;;4.70;;
4732;SDS011;2380;53.668;10.008;2023-08-30T14:41:11;7.57;;;4.20;;
4732;SDS011;2380;53.668;10.008;2023-08-30T14:43:42;8.82;;;4.40;;
4732;SDS011;2380;53.668;10.008;2023-08-30T14:46:12;7.15;;;3.90;;
4732;SDS011;2380;53.668;10.008;2023-08-30T14:48:51;9.68;;;3.83;;
4732;SDS011;2380;53.668;10.008;2023-08-30T14:51:20;7.80;;;4.10;;
4732;SDS011;2380;53.668;10.008;2023-08-30T14:53:50;7.88;;;3.50;;
4732;SDS011;2380;53.668;10.008;2023-08-30T14:56:20;8.82;;;4.05;;
4732;SDS011;2380;53.668;10.008;2023-08-30T14:58:49;8.97;;;4.03;;
4732;SDS011;2380;53.668;10.008;2023-08-30T15:01:19;7.30;;;3.70;;
4732;SDS011;2380;53.668;10.008;2023-08-30T15:03:51;9.20;;;4.18;;
4732;SDS011;2380;53.668;10.008;2023-08-30T15:06:21;10.05;;;4.78;;
4732;SDS011;2380;53.668;10.008;2023-08-30T15:08:50;8.60;;;5.18;;
4732;SDS011;2380;53.668;10.008;2023-08-30T15:11:20;12.35;;;6.80;;
4732;SDS011;2380;53.668;10.008;2023-08-30T15:13:50;14.88;;;7.30;;
4732;SDS011;2380;53.668;10.008;2023-08-30T15:16:19;9.27;;;4.60;;